Time;durP1;ratioP1;P1;durP2;ratioP2;P2;SDS_P1;SDS_P2;PMS_P1;PMS_P2;Temp;Humidity;BMP_temperature;BMP_pressure;BME280_temperature;BME280_humidity;BME280_pressure;Samples;Min_cycle;Max_cycle;Signal;HPM_P1;HPM_P2
2021/09/01 00:01:40;;;;;;;16.07;10.27;;;;;;;;;;5056149;28;20299;-85
2021/09/01 00:04:07;;;;;;;17.17;10.10;;;;;;;;;;5062270;28;20306;-84
2021/09/01 00:06:34;;;;;;;17.23;10.57;;;;;;;;;;5050368;28;20287;-83
2021/09/01 00:09:01;;;;;;;15.00;9.83;;;;;;;;;;5066760;28;20221;-84
2021/09/01 00:11:30;;;;;;;16.37;10.90;;;;;;;;;;5065121;28;20677;-85
2021/09/01 00:13:57;;;;;;;22.30;10.47;;;;;;;;;;5057003;28;20230;-84
2021/09/01 00:16:27;;;;;;;18.60;11.03;;;;;;;;;;5073506;28;20229;-85
2021/09/01 00:18:55;;;;;;;15.53;9.73;;;;;;;;;;5062673;28;20202;-84
2021/09/01 00:21:22;;;;;;;17.37;10.43;;;;;;;;;;5060733;28;20195;-83
2021/09/01 00:23:50;;;;;;;21.53;10.87;;;;;;;;;;5057006;28;20227;-83
2021/09/01 00:26:17;;;;;;;17.20;10.77;;;;;;;;;;5069293;28;20224;-84
2021/09/01 00:28:46;;;;;;;17.93;10.80;;;;;;;;;;5053409;28;20220;-84
2021/09/01 00:31:13;;;;;;;17.83;10.63;;;;;;;;;;5065564;28;20283;-83
2021/09/01 00:33:40;;;;;;;14.30;10.57;;;;;;;;;;5062088;28;20644;-83
2021/09/01 00:36:08;;;;;;;21.30;11.00;;;;;;;;;;5056409;28;20679;-82
2021/09/01 00:38:35;;;;;;;18.87;10.67;;;;;;;;;;5069802;28;20274;-84
2021/09/01 00:41:02;;;;;;;19.43;10.57;;;;;;;;;;5066104;28;20195;-84
2021/09/01 00:43:30;;;;;;;17.83;10.47;;;;;;;;;;5071473;28;20270;-83
2021/09/01 00:45:58;;;;;;;17.17;10.47;;;;;;;;;;5064980;28;20356;-84
2021/09/01 00:48:26;;;;;;;20.63;10.87;;;;;;;;;;5066924;28;20242;-83
2021/09/01 00:50:54;;;;;;;17.97;10.73;;;;;;;;;;5057250;28;20238;-84
2021/09/01 00:53:21;;;;;;;16.73;10.50;;;;;;;;;;5053556;28;20291;-84
2021/09/01 00:55:49;;;;;;;22.43;10.63;;;;;;;;;;5053348;28;20204;-84
2021/09/01 00:58:17;;;;;;;18.37;9.87;;;;;;;;;;5071353;28;20227;-84
2021/09/01 01:00:58;;;;;;;17.83;10.40;;;;;;;;;;5072243;28;20242;-84
2021/09/01 01:03:27;;;;;;;19.63;10.90;;;;;;;;;;5058646;28;20243;-84
2021/09/01 01:05:58;;;;;;;15.53;10.47;;;;;;;;;;5064730;28;20310;-85
2021/09/01 01:08:28;;;;;;;18.67;10.97;;;;;;;;;;5057005;28;20218;-84
2021/09/01 01:10:55;;;;;;;16.93;10.53;;;;;;;;;;5053744;28;20226;-84
2021/09/01 01:13:23;;;;;;;18.20;10.13;;;;;;;;;;5053850;28;20374;-84
2021/09/01 01:15:50;;;;;;;23.47;10.77;;;;;;;;;;5053329;28;20223;-84
2021/09/01 01:18:18;;;;;;;20.10;10.53;;;;;;;;;;5069433;28;20233;-84
2021/09/01 01:20:49;;;;;;;16.63;10.27;;;;;;;;;;5073387;28;20238;-84
2021/09/01 01:23:17;;;;;;;18.77;10.40;;;;;;;;;;5066162;28;20199;-84
2021/09/01 01:25:46;;;;;;;18.40;10.00;;;;;;;;;;5070150;28;20705;-84
2021/09/01 01:28:14;;;;;;;16.63;10.57;;;;;;;;;;5061311;28;20322;-84
2021/09/01 01:30:41;;;;;;;17.40;10.73;;;;;;;;;;5061073;28;20290;-84
2021/09/01 01:33:08;;;;;;;19.87;10.33;;;;;;;;;;5065637;28;20264;-84
2021/09/01 01:35:36;;;;;;;18.43;9.57;;;;;;;;;;5062392;28;20270;-83
2021/09/01 01:38:04;;;;;;;17.90;9.93;;;;;;;;;;5060752;28;20195;-83
2021/09/01 01:40:32;;;;;;;19.50;10.67;;;;;;;;;;5058785;28;20206;-83
2021/09/01 01:43:01;;;;;;;17.00;10.50;;;;;;;;;;5070548;28;20195;-83
2021/09/01 01:45:32;;;;;;;16.53;9.70;;;;;;;;;;5056634;28;20243;-83
2021/09/01 01:47:59;;;;;;;17.53;10.40;;;;;;;;;;5052149;28;20247;-84
2021/09/01 01:50:27;;;;;;;18.93;10.33;;;;;;;;;;5051912;28;20776;-84
2021/09/01 01:52:54;;;;;;;17.23;10.20;;;;;;;;;;5051685;28;20734;-84
2021/09/01 01:55:21;;;;;;;20.13;10.83;;;;;;;;;;5052066;28;20299;-84
2021/09/01 01:57:48;;;;;;;16.30;10.83;;;;;;;;;;5051911;28;20286;-84
2021/09/01 02:00:17;;;;;;;19.53;11.53;;;;;;;;;;5052036;28;20275;-84
2021/09/01 02:02:45;;;;;;;17.93;10.50;;;;;;;;;;5062643;28;20341;-84
2021/09/01 02:05:12;;;;;;;18.53;10.40;;;;;;;;;;5058490;28;20234;-84
2021/09/01 02:07:39;;;;;;;19.33;11.03;;;;;;;;;;5064836;28;20924;-83
2021/09/01 02:10:07;;;;;;;21.87;10.77;;;;;;;;;;5056533;28;20286;-83
2021/09/01 02:12:35;;;;;;;19.27;10.70;;;;;;;;;;5060648;28;20206;-84
2021/09/01 02:15:02;;;;;;;16.83;10.30;;;;;;;;;;5065046;28;20275;-84
2021/09/01 02:17:31;;;;;;;20.27;10.90;;;;;;;;;;5066399;28;20229;-84
2021/09/01 02:19:59;;;;;;;20.50;10.73;;;;;;;;;;5061760;28;20227;-84
2021/09/01 02:22:26;;;;;;;19.63;11.40;;;;;;;;;;5064870;28;21143;-84
2021/09/01 02:24:53;;;;;;;20.77;11.37;;;;;;;;;;5063076;28;20285;-84
2021/09/01 02:27:21;;;;;;;17.30;10.57;;;;;;;;;;5051574;28;20278;-83
2021/09/01 02:29:48;;;;;;;24.40;11.37;;;;;;;;;;5051684;28;20389;-84
2021/09/01 02:32:27;;;;;;;21.73;11.43;;;;;;;;;;5051273;28;20214;-83
2021/09/01 02:34:57;;;;;;;18.37;10.70;;;;;;;;;;5050828;28;20282;-83
2021/09/01 02:37:24;;;;;;;21.67;11.47;;;;;;;;;;5050554;28;20721;-83
2021/09/01 02:39:51;;;;;;;23.37;11.87;;;;;;;;;;5051672;28;20234;-84
2021/09/01 02:42:20;;;;;;;19.43;11.43;;;;;;;;;;5051077;28;20239;-84
2021/09/01 02:44:47;;;;;;;18.73;11.53;;;;;;;;;;5051289;28;20287;-84
2021/09/01 02:47:14;;;;;;;21.20;11.60;;;;;;;;;;5050919;28;20232;-84
2021/09/01 02:49:41;;;;;;;22.43;12.17;;;;;;;;;;5053044;28;20301;-83
2021/09/01 02:52:10;;;;;;;22.37;11.60;;;;;;;;;;5062783;28;20686;-84
2021/09/01 02:54:37;;;;;;;18.80;12.40;;;;;;;;;;5059937;28;20282;-85
2021/09/01 02:57:04;;;;;;;22.23;11.97;;;;;;;;;;5058431;28;20571;-84
2021/09/01 02:59:32;;;;;;;22.37;12.47;;;;;;;;;;5062368;28;20195;-83
2021/09/01 03:01:59;;;;;;;21.80;12.87;;;;;;;;;;5065969;28;20294;-83
2021/09/01 03:04:26;;;;;;;23.70;12.47;;;;;;;;;;5051626;28;20319;-83
2021/09/01 03:06:53;;;;;;;18.53;12.10;;;;;;;;;;5071419;28;20256;-83
2021/09/01 03:09:22;;;;;;;23.63;12.50;;;;;;;;;;5053950;28;20311;-84
2021/09/01 03:11:50;;;;;;;24.90;12.50;;;;;;;;;;5071223;28;20281;-84
2021/09/01 03:14:17;;;;;;;18.63;11.50;;;;;;;;;;5063356;28;20237;-84
2021/09/01 03:16:44;;;;;;;22.60;12.87;;;;;;;;;;5054284;28;20238;-83
2021/09/01 03:19:11;;;;;;;20.47;12.47;;;;;;;;;;5051674;28;20245;-83
2021/09/01 03:21:38;;;;;;;17.43;12.00;;;;;;;;;;5055454;28;20209;-84
2021/09/01 03:24:06;;;;;;;19.73;12.23;;;;;;;;;;5064824;28;20231;-84
2021/09/01 03:26:35;;;;;;;28.17;13.20;;;;;;;;;;5054535;28;20287;-84
2021/09/01 03:29:02;;;;;;;23.87;13.90;;;;;;;;;;5067284;28;20222;-83
2021/09/01 03:31:29;;;;;;;25.03;13.87;;;;;;;;;;5059527;28;20722;-83
2021/09/01 03:33:56;;;;;;;21.17;13.80;;;;;;;;;;5053249;28;20629;-84
2021/09/01 03:36:24;;;;;;;23.17;13.33;;;;;;;;;;5066592;28;20229;-84
2021/09/01 03:38:51;;;;;;;22.23;13.67;;;;;;;;;;5055426;28;20287;-84
2021/09/01 03:41:18;;;;;;;22.53;14.27;;;;;;;;;;5060382;28;20635;-84
2021/09/01 03:43:47;;;;;;;27.07;14.77;;;;;;;;;;5050398;28;20279;-84
2021/09/01 03:46:15;;;;;;;23.37;14.33;;;;;;;;;;5052589;28;20227;-84
2021/09/01 03:48:42;;;;;;;22.77;14.07;;;;;;;;;;5054706;28;20271;-84
2021/09/01 03:51:09;;;;;;;25.77;15.83;;;;;;;;;;5055023;28;20656;-84
2021/09/01 03:53:36;;;;;;;26.20;16.07;;;;;;;;;;5054554;28;20231;-84
2021/09/01 03:56:04;;;;;;;27.53;15.13;;;;;;;;;;5054535;28;20238;-83
2021/09/01 03:58:31;;;;;;;28.73;15.60;;;;;;;;;;5053835;28;20242;-84
2021/09/01 04:01:00;;;;;;;23.40;14.73;;;;;;;;;;5054718;28;20651;-83
2021/09/01 04:03:27;;;;;;;23.53;16.07;;;;;;;;;;5053106;28;20664;-84
2021/09/01 04:05:55;;;;;;;30.27;16.17;;;;;;;;;;5061961;28;20282;-84
2021/09/01 04:08:22;;;;;;;25.77;15.40;;;;;;;;;;5065158;28;20773;-84
2021/09/01 04:10:50;;;;;;;29.00;15.43;;;;;;;;;;5068014;28;20289;-84
2021/09/01 04:13:17;;;;;;;29.70;16.00;;;;;;;;;;5063683;28;20231;-83
2021/09/01 04:15:45;;;;;;;25.53;16.10;;;;;;;;;;5069791;28;20294;-83
2021/09/01 04:18:13;;;;;;;28.47;16.63;;;;;;;;;;5056895;28;20284;-84
2021/09/01 04:20:40;;;;;;;30.03;16.10;;;;;;;;;;5070077;28;20670;-84
2021/09/01 04:23:08;;;;;;;26.37;16.67;;;;;;;;;;5060550;28;20286;-84
2021/09/01 04:25:35;;;;;;;23.37;16.03;;;;;;;;;;5054868;28;20302;-84
2021/09/01 04:28:02;;;;;;;31.07;16.90;;;;;;;;;;5070703;28;20281;-83
2021/09/01 04:30:29;;;;;;;25.37;16.43;;;;;;;;;;5058202;28;20223;-84
2021/09/01 04:32:56;;;;;;;24.57;16.53;;;;;;;;;;5066535;28;20287;-84
2021/09/01 04:35:25;;;;;;;29.67;17.30;;;;;;;;;;5063074;28;20222;-83
2021/09/01 04:37:52;;;;;;;31.53;17.20;;;;;;;;;;5064524;28;20237;-84
2021/09/01 04:40:20;;;;;;;28.40;17.77;;;;;;;;;;5064249;28;20290;-84
2021/09/01 04:42:47;;;;;;;29.47;16.77;;;;;;;;;;5054299;28;20206;-83
2021/09/01 04:45:14;;;;;;;28.57;16.90;;;;;;;;;;5055624;28;20295;-83
2021/09/01 04:47:41;;;;;;;28.90;17.50;;;;;;;;;;5058052;28;20290;-84
2021/09/01 04:50:09;;;;;;;26.00;17.20;;;;;;;;;;5073258;28;20247;-84
2021/09/01 04:52:37;;;;;;;27.07;17.23;;;;;;;;;;5072254;28;20290;-84
2021/09/01 04:55:05;;;;;;;27.63;17.60;;;;;;;;;;5057795;28;20288;-84
2021/09/01 04:57:32;;;;;;;28.80;18.20;;;;;;;;;;5070827;28;20274;-83
2021/09/01 04:59:59;;;;;;;31.03;19.00;;;;;;;;;;5068889;28;20214;-84
2021/09/01 05:02:26;;;;;;;28.53;18.43;;;;;;;;;;5064037;28;20247;-83
2021/09/01 05:04:53;;;;;;;31.33;18.10;;;;;;;;;;5052741;28;20207;-84
2021/09/01 05:07:21;;;;;;;31.60;18.10;;;;;;;;;;5053282;28;20278;-83
2021/09/01 05:09:49;;;;;;;30.77;18.53;;;;;;;;;;5061615;28;20230;-83
2021/09/01 05:12:16;;;;;;;28.43;19.00;;;;;;;;;;5061447;28;20218;-83
2021/09/01 05:14:44;;;;;;;27.00;18.60;;;;;;;;;;5057827;28;20229;-84
2021/09/01 05:17:11;;;;;;;28.80;19.70;;;;;;;;;;5064395;28;20219;-83
2021/09/01 05:19:38;;;;;;;34.27;20.53;;;;;;;;;;5063474;28;20286;-83
2021/09/01 05:22:06;;;;;;;32.97;20.83;;;;;;;;;;5064447;28;20228;-84
2021/09/01 05:24:51;;;;;;;32.47;20.53;;;;;;;;;;5062032;28;20223;-82
2021/09/01 05:27:21;;;;;;;33.10;21.73;;;;;;;;;;5064657;28;20274;-82
2021/09/01 05:29:49;;;;;;;31.77;22.13;;;;;;;;;;5060007;28;20224;-81
2021/09/01 05:32:19;;;;;;;37.17;23.70;;;;;;;;;;5061479;28;20666;-82
2021/09/01 05:34:48;;;;;;;34.70;22.40;;;;;;;;;;5060976;28;20706;-81
2021/09/01 05:37:15;;;;;;;38.27;23.73;;;;;;;;;;5053611;28;20257;-81
2021/09/01 05:39:43;;;;;;;35.77;24.07;;;;;;;;;;5065732;28;20195;-82
2021/09/01 05:42:11;;;;;;;40.20;25.17;;;;;;;;;;5065317;28;20281;-82
2021/09/01 05:44:40;;;;;;;35.60;24.60;;;;;;;;;;5065760;28;20292;-81
2021/09/01 05:47:08;;;;;;;39.03;25.30;;;;;;;;;;5062784;28;20226;-82
2021/09/01 05:49:36;;;;;;;37.27;25.57;;;;;;;;;;5067065;28;20293;-82
2021/09/01 05:52:04;;;;;;;39.63;24.97;;;;;;;;;;5062382;28;20279;-82
2021/09/01 05:54:31;;;;;;;37.80;25.53;;;;;;;;;;5062890;28;20227;-81
2021/09/01 05:57:07;;;;;;;37.93;25.83;;;;;;;;;;5062316;28;20234;-82
2021/09/01 05:59:39;;;;;;;39.00;25.27;;;;;;;;;;5059665;28;20226;-79
2021/09/01 06:02:09;;;;;;;39.80;25.70;;;;;;;;;;5056961;28;20781;-84
2021/09/01 06:04:39;;;;;;;37.33;25.93;;;;;;;;;;5060932;28;20315;-83
2021/09/01 06:07:13;;;;;;;37.87;24.43;;;;;;;;;;5052641;28;20257;-84
2021/09/01 06:09:42;;;;;;;35.47;25.03;;;;;;;;;;5051227;28;20227;-84
2021/09/01 06:12:10;;;;;;;40.17;23.97;;;;;;;;;;5051775;28;20196;-84
2021/09/01 06:14:41;;;;;;;34.00;24.13;;;;;;;;;;5068027;28;20624;-83
2021/09/01 06:17:21;;;;;;;32.80;23.27;;;;;;;;;;5069478;28;20194;-84
2021/09/01 06:19:48;;;;;;;33.20;23.63;;;;;;;;;;5052011;28;20207;-84
2021/09/01 06:22:16;;;;;;;35.40;23.73;;;;;;;;;;5053367;28;20227;-83
2021/09/01 06:24:46;;;;;;;29.50;22.67;;;;;;;;;;5058602;28;20245;-84
2021/09/01 06:27:25;;;;;;;30.57;22.23;;;;;;;;;;5066406;28;20273;-84
2021/09/01 06:29:53;;;;;;;30.80;22.40;;;;;;;;;;5059252;28;20226;-84
2021/09/01 06:32:22;;;;;;;28.70;21.93;;;;;;;;;;5059324;28;20287;-84
2021/09/01 06:34:49;;;;;;;32.73;22.20;;;;;;;;;;5050771;28;20795;-84
2021/09/01 06:37:16;;;;;;;30.53;22.00;;;;;;;;;;5052054;28;20203;-84
2021/09/01 06:39:44;;;;;;;30.13;22.27;;;;;;;;;;5050703;28;20260;-84
2021/09/01 06:42:12;;;;;;;28.10;20.57;;;;;;;;;;5051514;28;20199;-84
2021/09/01 06:44:40;;;;;;;30.60;21.60;;;;;;;;;;5051036;28;20196;-83
2021/09/01 06:47:07;;;;;;;29.57;20.77;;;;;;;;;;5051582;28;20288;-84
2021/09/01 06:49:38;;;;;;;25.27;20.17;;;;;;;;;;5050776;28;20215;-84
2021/09/01 06:52:06;;;;;;;25.93;20.03;;;;;;;;;;5057259;28;20199;-84
2021/09/01 06:54:45;;;;;;;28.15;19.60;;;;;;;;;;5062852;28;20283;-84
2021/09/01 06:57:13;;;;;;;25.38;19.08;;;;;;;;;;5062645;28;20658;-84
2021/09/01 06:59:41;;;;;;;25.70;18.77;;;;;;;;;;5057490;28;20678;-84
2021/09/01 07:02:14;;;;;;;24.35;18.80;;;;;;;;;;5050136;28;20305;-83
2021/09/01 07:04:45;;;;;;;22.45;18.30;;;;;;;;;;5050133;28;20231;-84
2021/09/01 07:07:12;;;;;;;23.65;18.20;;;;;;;;;;5056300;28;20199;-83
2021/09/01 07:13:05;;;;;;;23.73;18.02;;;;;;;;;;5004367;28;20743;-84
2021/09/01 07:15:32;;;;;;;23.30;17.63;;;;;;;;;;5017399;28;20284;-84
2021/09/01 07:18:00;;;;;;;22.58;17.13;;;;;;;;;;5016686;28;20284;-84
2021/09/01 07:20:28;;;;;;;22.15;17.63;;;;;;;;;;5013267;28;20287;-84
2021/09/01 07:22:55;;;;;;;20.67;16.92;;;;;;;;;;5029385;28;20291;-83
2021/09/01 07:25:23;;;;;;;22.33;17.00;;;;;;;;;;5030076;28;20743;-84
2021/09/01 07:27:50;;;;;;;19.45;16.17;;;;;;;;;;5023789;28;20215;-84
2021/09/01 07:30:17;;;;;;;21.30;15.95;;;;;;;;;;5022274;28;20748;-84
2021/09/01 07:32:45;;;;;;;23.27;16.25;;;;;;;;;;5018142;28;20585;-85
2021/09/01 07:35:12;;;;;;;19.42;15.82;;;;;;;;;;5024024;28;20295;-85
2021/09/01 07:37:45;;;;;;;22.50;16.70;;;;;;;;;;5013429;28;20297;-85
2021/09/01 07:40:13;;;;;;;20.17;15.35;;;;;;;;;;5013370;28;20232;-84
2021/09/01 07:42:41;;;;;;;20.60;15.90;;;;;;;;;;5019538;28;20724;-85
2021/09/01 07:45:09;;;;;;;17.95;15.80;;;;;;;;;;5028629;28;20951;-86
2021/09/01 07:47:36;;;;;;;20.17;15.73;;;;;;;;;;5023296;28;20268;-85
2021/09/01 07:50:03;;;;;;;19.85;16.27;;;;;;;;;;5061300;28;20305;-84
2021/09/01 07:52:30;;;;;;;20.27;16.15;;;;;;;;;;5073560;28;20281;-84
2021/09/01 07:54:59;;;;;;;18.42;15.65;;;;;;;;;;5064346;28;20641;-84
2021/09/01 07:57:26;;;;;;;18.27;15.82;;;;;;;;;;5069704;28;20294;-84
2021/09/01 07:59:53;;;;;;;18.52;16.10;;;;;;;;;;5071887;28;20280;-83
2021/09/01 08:02:21;;;;;;;20.08;15.55;;;;;;;;;;5064200;28;20594;-84
2021/09/01 08:04:49;;;;;;;21.30;16.60;;;;;;;;;;5062511;28;20932;-84
2021/09/01 08:07:16;;;;;;;22.67;16.23;;;;;;;;;;5069728;28;20199;-83
2021/09/01 08:09:43;;;;;;;20.52;16.60;;;;;;;;;;5065123;28;20218;-83
2021/09/01 08:12:12;;;;;;;19.70;16.70;;;;;;;;;;5056876;28;20326;-83
2021/09/01 08:14:39;;;;;;;21.85;17.15;;;;;;;;;;5053568;28;20291;-84
2021/09/01 08:17:06;;;;;;;22.33;17.15;;;;;;;;;;5054590;28;20650;-84
2021/09/01 08:19:33;;;;;;;21.58;16.38;;;;;;;;;;5058024;28;20279;-84
2021/09/01 08:22:01;;;;;;;20.23;16.95;;;;;;;;;;5072654;28;20217;-84
2021/09/01 08:24:28;;;;;;;22.38;16.95;;;;;;;;;;5068575;28;20292;-84
2021/09/01 08:26:56;;;;;;;23.23;16.83;;;;;;;;;;5067005;28;20268;-83
2021/09/01 08:29:24;;;;;;;21.08;17.13;;;;;;;;;;5064810;28;20353;-83
2021/09/01 08:31:51;;;;;;;18.58;15.10;;;;;;;;;;5066227;28;20542;-83
2021/09/01 08:34:19;;;;;;;20.85;15.70;;;;;;;;;;5061019;28;20195;-84
2021/09/01 08:36:46;;;;;;;23.73;14.82;;;;;;;;;;5073413;28;20223;-83
2021/09/01 08:39:13;;;;;;;16.85;14.63;;;;;;;;;;5067012;28;20234;-83
2021/09/01 08:41:41;;;;;;;19.73;14.60;;;;;;;;;;5055326;28;20231;-81
2021/09/01 08:44:08;;;;;;;17.27;14.48;;;;;;;;;;5055727;28;20234;-84
2021/09/01 08:46:38;;;;;;;16.02;14.32;;;;;;;;;;5055050;28;20231;-83
2021/09/01 08:49:05;;;;;;;19.42;14.10;;;;;;;;;;5067429;28;20282;-85
2021/09/01 08:51:33;;;;;;;16.98;13.93;;;;;;;;;;5063729;28;20305;-83
2021/09/01 08:54:00;;;;;;;16.55;13.25;;;;;;;;;;5069164;28;20210;-84
2021/09/01 08:56:28;;;;;;;18.77;13.98;;;;;;;;;;5060672;28;20289;-84
2021/09/01 08:58:55;;;;;;;18.58;13.30;;;;;;;;;;5069960;28;20206;-83
2021/09/01 09:01:44;;;;;;;16.95;13.57;;;;;;;;;;5069151;28;20630;-84
2021/09/01 09:04:30;;;;;;;15.10;13.05;;;;;;;;;;5071681;28;20259;-84
2021/09/01 09:06:58;;;;;;;15.68;13.98;;;;;;;;;;5060192;28;20573;-83
2021/09/01 09:09:26;;;;;;;17.33;13.70;;;;;;;;;;5062932;28;20207;-83
2021/09/01 09:11:55;;;;;;;17.80;13.90;;;;;;;;;;5063983;28;20227;-83
2021/09/01 09:14:23;;;;;;;17.40;13.70;;;;;;;;;;5063526;28;20225;-83
2021/09/01 09:17:05;;;;;;;17.50;14.32;;;;;;;;;;5066993;28;20234;-83
2021/09/01 09:19:45;;;;;;;18.63;13.18;;;;;;;;;;5055680;28;20282;-83
2021/09/01 09:22:15;;;;;;;16.98;13.75;;;;;;;;;;5066774;28;20223;-83
2021/09/01 09:24:42;;;;;;;16.90;13.50;;;;;;;;;;5067613;28;20207;-83
2021/09/01 09:27:09;;;;;;;16.75;12.65;;;;;;;;;;5058172;28;20286;-84
2021/09/01 09:29:37;;;;;;;16.55;12.93;;;;;;;;;;5061892;28;20279;-83
2021/09/01 09:32:06;;;;;;;15.52;12.38;;;;;;;;;;5062687;28;20203;-83
2021/09/01 09:34:36;;;;;;;17.77;12.95;;;;;;;;;;5062730;28;20282;-83
2021/09/01 09:37:03;;;;;;;18.90;13.32;;;;;;;;;;5066586;28;20218;-83
2021/09/01 09:39:37;;;;;;;15.90;13.18;;;;;;;;;;5059331;28;20215;-83
2021/09/01 09:42:05;;;;;;;16.73;12.93;;;;;;;;;;5061815;28;20613;-83
2021/09/01 09:44:32;;;;;;;15.15;12.40;;;;;;;;;;5063676;28;20218;-83
2021/09/01 09:46:59;;;;;;;18.50;13.02;;;;;;;;;;5064809;28;20677;-83
2021/09/01 09:49:30;;;;;;;16.27;13.57;;;;;;;;;;5070025;28;20279;-82
2021/09/01 09:51:58;;;;;;;16.42;13.02;;;;;;;;;;5067837;28;20202;-82
2021/09/01 09:54:26;;;;;;;19.80;13.75;;;;;;;;;;5069042;28;20286;-82
2021/09/01 09:57:06;;;;;;;17.02;12.85;;;;;;;;;;5061551;28;20662;-82
2021/09/01 09:59:34;;;;;;;15.88;12.63;;;;;;;;;;5067780;28;20190;-82
2021/09/01 10:02:01;;;;;;;16.63;12.07;;;;;;;;;;5068451;28;20211;-83
2021/09/01 10:04:30;;;;;;;17.45;12.52;;;;;;;;;;5065250;28;20246;-83
2021/09/01 10:06:58;;;;;;;17.55;12.02;;;;;;;;;;5069292;28;20230;-83
2021/09/01 10:09:25;;;;;;;17.77;12.32;;;;;;;;;;5063411;28;20224;-82
2021/09/01 10:11:52;;;;;;;16.58;12.43;;;;;;;;;;5061725;28;20266;-82
2021/09/01 10:14:24;;;;;;;15.90;12.68;;;;;;;;;;5066416;28;20310;-82
2021/09/01 10:16:54;;;;;;;14.93;12.27;;;;;;;;;;5061660;28;20191;-83
2021/09/01 10:19:26;;;;;;;17.52;12.13;;;;;;;;;;5074465;28;20267;-84
2021/09/01 10:21:57;;;;;;;15.50;11.15;;;;;;;;;;5072136;28;20209;-84
2021/09/01 10:24:28;;;;;;;14.77;11.65;;;;;;;;;;5055555;28;20207;-84
2021/09/01 10:27:00;;;;;;;13.73;11.13;;;;;;;;;;5051947;28;20310;-79
2021/09/01 10:29:42;;;;;;;14.43;11.15;;;;;;;;;;5053878;28;20667;-78
2021/09/01 10:32:33;;;;;;;15.90;11.18;;;;;;;;;;5051251;28;20645;-80
2021/09/01 10:35:18;;;;;;;13.82;10.60;;;;;;;;;;5042305;28;20259;-79
2021/09/01 10:37:49;;;;;;;14.25;11.15;;;;;;;;;;5060408;28;20285;-78
2021/09/01 10:40:37;;;;;;;15.57;10.82;;;;;;;;;;5072981;28;20286;-79
2021/09/01 10:43:18;;;;;;;13.98;10.35;;;;;;;;;;5063879;28;20259;-79
2021/09/01 10:45:56;;;;;;;13.80;11.02;;;;;;;;;;5059966;28;20227;-79
2021/09/01 10:48:23;;;;;;;15.48;10.57;;;;;;;;;;5062075;28;20231;-79
2021/09/01 10:50:51;;;;;;;15.18;9.23;;;;;;;;;;5058103;28;20302;-78
2021/09/01 10:53:21;;;;;;;13.32;10.50;;;;;;;;;;5059323;28;20204;-79
2021/09/01 10:55:50;;;;;;;13.65;10.32;;;;;;;;;;5050087;28;20199;-78
2021/09/01 10:58:25;;;;;;;13.73;10.15;;;;;;;;;;5050466;28;20253;-78
2021/09/01 11:00:58;;;;;;;12.70;9.90;;;;;;;;;;5055997;28;20290;-78
2021/09/01 11:03:33;;;;;;;14.85;10.32;;;;;;;;;;5063043;28;20234;-78
2021/09/01 11:06:15;;;;;;;12.32;9.32;;;;;;;;;;5054869;28;20230;-79
2021/09/01 11:09:04;;;;;;;11.82;9.90;;;;;;;;;;5057357;28;20282;-79
2021/09/01 11:11:54;;;;;;;11.10;8.70;;;;;;;;;;5057530;28;20306;-79
2021/09/01 11:14:33;;;;;;;13.07;9.63;;;;;;;;;;5053724;28;20195;-79
2021/09/01 11:17:00;;;;;;;11.57;9.80;;;;;;;;;;5063787;28;20260;-79
2021/09/01 11:19:27;;;;;;;12.05;9.32;;;;;;;;;;5066116;28;20286;-78
2021/09/01 11:21:55;;;;;;;11.45;8.88;;;;;;;;;;5065358;28;20222;-78
2021/09/01 11:24:24;;;;;;;12.02;9.00;;;;;;;;;;5068808;28;20206;-79
2021/09/01 11:26:54;;;;;;;11.38;8.82;;;;;;;;;;5058101;28;20261;-79
2021/09/01 11:29:29;;;;;;;12.38;9.15;;;;;;;;;;5066533;28;20203;-79
2021/09/01 11:31:56;;;;;;;11.95;8.93;;;;;;;;;;5059533;28;20314;-78
2021/09/01 11:34:24;;;;;;;10.30;7.95;;;;;;;;;;5062413;28;20205;-79
2021/09/01 11:36:51;;;;;;;15.13;9.57;;;;;;;;;;5055900;28;20222;-79
2021/09/01 11:39:18;;;;;;;11.32;8.45;;;;;;;;;;5054721;28;20263;-79
2021/09/01 11:41:47;;;;;;;11.38;8.65;;;;;;;;;;5055796;28;20223;-79
2021/09/01 11:44:15;;;;;;;11.73;8.60;;;;;;;;;;5062561;28;20195;-79
2021/09/01 11:46:42;;;;;;;10.27;8.25;;;;;;;;;;5067851;28;20678;-79
2021/09/01 11:49:14;;;;;;;10.70;8.98;;;;;;;;;;5067627;28;20242;-79
2021/09/01 11:51:41;;;;;;;10.43;9.00;;;;;;;;;;5057201;28;20303;-79
2021/09/01 11:54:09;;;;;;;11.38;8.48;;;;;;;;;;5050798;28;20256;-79
2021/09/01 11:56:36;;;;;;;12.95;8.65;;;;;;;;;;5068327;28;20340;-79
2021/09/01 11:59:08;;;;;;;10.43;8.00;;;;;;;;;;5061953;28;21018;-79
2021/09/01 12:01:37;;;;;;;11.05;8.18;;;;;;;;;;5061268;28;20246;-79
2021/09/01 12:04:05;;;;;;;9.80;7.90;;;;;;;;;;5063423;28;20319;-78
2021/09/01 12:06:39;;;;;;;9.35;7.32;;;;;;;;;;5064620;28;20231;-79
2021/09/01 12:09:10;;;;;;;10.45;7.88;;;;;;;;;;5070276;28;20194;-78
2021/09/01 12:11:38;;;;;;;9.57;7.80;;;;;;;;;;5055462;28;20230;-78
2021/09/01 12:14:07;;;;;;;9.70;7.60;;;;;;;;;;5064475;28;20231;-78
2021/09/01 12:16:35;;;;;;;11.77;8.13;;;;;;;;;;5055109;28;20745;-79
2021/09/01 12:19:03;;;;;;;11.07;8.43;;;;;;;;;;5069130;28;20201;-79
2021/09/01 12:21:44;;;;;;;12.70;9.10;;;;;;;;;;5061856;28;20195;-78
2021/09/01 12:24:13;;;;;;;11.23;8.32;;;;;;;;;;5072447;28;20271;-78
2021/09/01 12:26:47;;;;;;;9.02;7.03;;;;;;;;;;5069681;28;20238;-79
2021/09/01 12:29:30;;;;;;;10.52;7.32;;;;;;;;;;5056928;28;20274;-79
2021/09/01 12:31:58;;;;;;;8.32;7.03;;;;;;;;;;5065725;28;20309;-78
2021/09/01 12:34:26;;;;;;;9.40;7.22;;;;;;;;;;5070311;28;20282;-78
2021/09/01 12:36:58;;;;;;;11.07;7.82;;;;;;;;;;5065122;28;20667;-78
2021/09/01 12:39:25;;;;;;;10.23;7.15;;;;;;;;;;5067862;28;20191;-78
2021/09/01 12:41:52;;;;;;;9.82;7.10;;;;;;;;;;5064662;28;20294;-78
2021/09/01 12:44:19;;;;;;;11.05;7.90;;;;;;;;;;5071777;28;20213;-79
2021/09/01 12:46:48;;;;;;;10.45;6.57;;;;;;;;;;5062218;28;20294;-79
2021/09/01 12:49:24;;;;;;;9.18;6.82;;;;;;;;;;5071245;28;20223;-78
2021/09/01 12:51:54;;;;;;;9.63;6.63;;;;;;;;;;5071693;28;20302;-78
2021/09/01 12:54:23;;;;;;;9.65;7.07;;;;;;;;;;5073896;28;20282;-79
2021/09/01 12:56:51;;;;;;;8.18;6.60;;;;;;;;;;5067146;28;20195;-79
2021/09/01 12:59:18;;;;;;;7.95;6.30;;;;;;;;;;5053077;28;20199;-79
2021/09/01 13:01:47;;;;;;;9.43;6.88;;;;;;;;;;5069087;28;20301;-79
2021/09/01 13:04:14;;;;;;;7.53;6.63;;;;;;;;;;5059284;28;20273;-79
2021/09/01 13:06:42;;;;;;;9.55;6.82;;;;;;;;;;5072724;28;20655;-78
2021/09/01 13:09:11;;;;;;;13.40;6.95;;;;;;;;;;5071639;28;20208;-78
2021/09/01 13:11:38;;;;;;;10.13;6.20;;;;;;;;;;5064378;28;20277;-78
2021/09/01 13:14:05;;;;;;;8.75;6.72;;;;;;;;;;5063951;28;20226;-79
2021/09/01 13:16:32;;;;;;;7.13;6.35;;;;;;;;;;5071568;28;20234;-79
2021/09/01 13:19:00;;;;;;;16.73;6.93;;;;;;;;;;5070336;28;20238;-78
2021/09/01 13:21:28;;;;;;;8.13;6.97;;;;;;;;;;5068064;28;20199;-78
2021/09/01 13:23:55;;;;;;;7.80;6.30;;;;;;;;;;5072960;28;20310;-78
2021/09/01 13:26:22;;;;;;;7.68;6.05;;;;;;;;;;5073277;28;20201;-78
2021/09/01 13:28:49;;;;;;;8.50;6.20;;;;;;;;;;5057419;28;20686;-79
2021/09/01 13:31:16;;;;;;;8.00;6.55;;;;;;;;;;5069772;28;20733;-79
2021/09/01 13:33:47;;;;;;;8.52;6.45;;;;;;;;;;5059330;28;20647;-79
2021/09/01 13:36:16;;;;;;;9.50;6.18;;;;;;;;;;5071033;28;20753;-78
2021/09/01 13:38:45;;;;;;;10.38;7.00;;;;;;;;;;5070103;28;20235;-79
2021/09/01 13:41:12;;;;;;;8.65;5.90;;;;;;;;;;5071413;28;20251;-78
2021/09/01 13:43:40;;;;;;;7.63;6.10;;;;;;;;;;5070069;28;20738;-78
2021/09/01 13:46:07;;;;;;;9.20;6.25;;;;;;;;;;5072099;28;20233;-79
2021/09/01 13:48:34;;;;;;;7.35;6.43;;;;;;;;;;5072848;28;20223;-79
2021/09/01 13:51:02;;;;;;;8.82;6.00;;;;;;;;;;5070051;28;20203;-79
2021/09/01 13:53:31;;;;;;;7.63;5.80;;;;;;;;;;5072247;28;20293;-80
2021/09/01 13:56:01;;;;;;;8.73;6.78;;;;;;;;;;5072978;28;20195;-78
2021/09/01 13:58:28;;;;;;;8.63;6.28;;;;;;;;;;5071081;28;20203;-79
2021/09/01 14:00:57;;;;;;;7.63;6.40;;;;;;;;;;5067395;28;20196;-79
2021/09/01 14:03:25;;;;;;;9.32;6.45;;;;;;;;;;5054976;28;20219;-79
2021/09/01 14:05:52;;;;;;;8.85;6.30;;;;;;;;;;5058663;28;20199;-79
2021/09/01 14:08:19;;;;;;;8.57;6.43;;;;;;;;;;5053967;28;20663;-79
2021/09/01 14:10:48;;;;;;;8.75;6.95;;;;;;;;;;5051850;28;20671;-79
2021/09/01 14:13:15;;;;;;;8.65;6.53;;;;;;;;;;5051231;28;20303;-78
2021/09/01 14:15:42;;;;;;;8.68;6.63;;;;;;;;;;5052058;28;20283;-78
2021/09/01 14:18:10;;;;;;;7.40;5.90;;;;;;;;;;5051311;28;20292;-78
2021/09/01 14:20:37;;;;;;;8.35;6.72;;;;;;;;;;5051837;28;20386;-79
2021/09/01 14:23:08;;;;;;;10.27;6.30;;;;;;;;;;5051427;28;20282;-79
2021/09/01 14:25:36;;;;;;;7.93;6.10;;;;;;;;;;5072537;28;20199;-79
2021/09/01 14:28:04;;;;;;;8.18;5.60;;;;;;;;;;5070125;28;20203;-79
2021/09/01 14:30:32;;;;;;;10.63;5.95;;;;;;;;;;5057700;28;20250;-79
2021/09/01 14:32:59;;;;;;;6.82;5.60;;;;;;;;;;5051587;28;20640;-79
2021/09/01 14:35:26;;;;;;;7.70;5.97;;;;;;;;;;5060351;28;20200;-79